createdAt,value
2018-10-16T00:00:14.269Z,1002.17
2018-10-16T00:01:14.289Z,1002.22
2018-10-16T00:02:14.315Z,1002.25
2018-10-16T00:03:14.417Z,1002.22
2018-10-16T00:04:14.329Z,1002.24
2018-10-16T00:05:14.360Z,1002.28
2018-10-16T00:06:14.368Z,1002.25
2018-10-16T00:07:14.390Z,1002.23
2018-10-16T00:08:14.401Z,1002.28
2018-10-16T00:09:14.460Z,1002.29
2018-10-16T00:10:14.432Z,1002.29
2018-10-16T00:11:14.452Z,1002.25
2018-10-16T00:12:14.473Z,1002.24
2018-10-16T00:13:14.487Z,1002.21
2018-10-16T00:14:14.508Z,1002.21
2018-10-16T00:15:14.520Z,1002.20
2018-10-16T00:16:14.536Z,1002.21
2018-10-16T00:17:14.552Z,1002.18
2018-10-16T00:18:14.569Z,1002.20
2018-10-16T00:19:14.586Z,1002.23
2018-10-16T00:20:14.601Z,1002.20
2018-10-16T00:21:14.620Z,1002.22
2018-10-16T00:22:14.643Z,1002.22
2018-10-16T00:23:14.662Z,1002.22
2018-10-16T00:24:14.670Z,1002.24
2018-10-16T00:25:14.682Z,1002.22
2018-10-16T00:26:14.700Z,1002.21
2018-10-16T00:27:14.730Z,1002.27
2018-10-16T00:28:14.760Z,1002.24
2018-10-16T00:29:14.764Z,1002.29
2018-10-16T00:30:14.765Z,1002.32
2018-10-16T00:31:14.783Z,1002.26
2018-10-16T00:32:14.838Z,1002.31
2018-10-16T00:33:14.837Z,1002.29
2018-10-16T00:34:14.839Z,1002.28
2018-10-16T00:35:14.850Z,1002.30
2018-10-16T00:36:14.869Z,1002.30
2018-10-16T00:37:14.888Z,1002.30
2018-10-16T00:38:14.903Z,1002.31
2018-10-16T00:39:14.937Z,1002.30
2018-10-16T00:40:14.937Z,1002.29
2018-10-16T00:41:14.953Z,1002.26
2018-10-16T00:42:14.998Z,1002.28
2018-10-16T00:43:14.997Z,1002.28
2018-10-16T00:44:15.005Z,1002.30
2018-10-16T00:45:15.018Z,1002.33
2018-10-16T00:46:15.039Z,1002.32
2018-10-16T00:47:15.065Z,1002.34
2018-10-16T00:48:15.070Z,1002.35
2018-10-16T00:49:15.104Z,1002.35
2018-10-16T00:50:15.111Z,1002.35
2018-10-16T00:51:15.119Z,1002.37
2018-10-16T00:52:15.171Z,1002.35
2018-10-16T00:53:15.151Z,1002.42
2018-10-16T00:54:15.192Z,1002.39
2018-10-16T00:55:15.202Z,1002.41
2018-10-16T00:56:15.204Z,1002.43
2018-10-16T00:57:15.223Z,1002.45
2018-10-16T00:58:15.236Z,1002.46
2018-10-16T00:59:15.255Z,1002.46
2018-10-16T01:00:15.271Z,1002.43
2018-10-16T01:01:15.285Z,1002.44
2018-10-16T01:02:15.302Z,1002.48
2018-10-16T01:03:15.329Z,1002.46
2018-10-16T01:04:15.341Z,1002.46
2018-10-16T01:05:15.361Z,1002.45
2018-10-16T01:06:15.380Z,1002.49
2018-10-16T01:07:15.388Z,1002.51
2018-10-16T01:08:15.419Z,1002.47
2018-10-16T01:09:15.420Z,1002.47
2018-10-16T01:10:15.444Z,1002.46
2018-10-16T01:11:15.462Z,1002.50
2018-10-16T01:12:15.497Z,1002.53
2018-10-16T01:13:15.495Z,1002.49
2018-10-16T01:14:15.508Z,1002.46
2018-10-16T01:15:15.527Z,1002.49
2018-10-16T01:16:15.538Z,1002.47
2018-10-16T01:17:15.557Z,1002.49
2018-10-16T01:18:15.569Z,1002.53
2018-10-16T01:19:15.595Z,1002.54
2018-10-16T01:20:15.618Z,1002.56
2018-10-16T01:21:15.637Z,1002.52
2018-10-16T01:22:15.645Z,1002.55
2018-10-16T01:23:15.655Z,1002.54
2018-10-16T01:24:15.668Z,1002.55
2018-10-16T01:25:15.690Z,1002.54
2018-10-16T01:26:15.706Z,1002.56
2018-10-16T01:27:15.715Z,1002.54
2018-10-16T01:28:15.738Z,1002.55
2018-10-16T01:29:15.752Z,1002.55
2018-10-16T01:30:15.777Z,1002.52
2018-10-16T01:31:15.788Z,1002.55
2018-10-16T01:32:15.802Z,1002.55
2018-10-16T01:33:15.824Z,1002.54
2018-10-16T01:34:15.834Z,1002.52
2018-10-16T01:35:15.856Z,1002.53
2018-10-16T01:36:15.870Z,1002.54
2018-10-16T01:37:15.903Z,1002.55
2018-10-16T01:38:15.910Z,1002.53
2018-10-16T01:39:15.925Z,1002.55
2018-10-16T01:40:15.935Z,1002.53
2018-10-16T01:41:15.960Z,1002.52
2018-10-16T01:42:15.973Z,1002.48
2018-10-16T01:43:16.001Z,1002.53
2018-10-16T01:44:16.006Z,1002.52
2018-10-16T01:45:16.026Z,1002.52
2018-10-16T01:46:16.032Z,1002.55
2018-10-16T01:47:16.065Z,1002.54
2018-10-16T01:48:16.064Z,1002.50
2018-10-16T01:49:16.097Z,1002.52
2018-10-16T01:50:16.112Z,1002.52
2018-10-16T01:51:16.124Z,1002.51
2018-10-16T01:52:16.143Z,1002.51
2018-10-16T01:53:16.157Z,1002.50
2018-10-16T01:54:16.166Z,1002.50
2018-10-16T01:55:16.184Z,1002.50
2018-10-16T01:56:16.200Z,1002.50
2018-10-16T01:57:16.214Z,1002.49
2018-10-16T01:58:16.269Z,1002.51
2018-10-16T01:59:16.251Z,1002.50
2018-10-16T02:00:16.264Z,1002.50
2018-10-16T02:01:16.281Z,1002.52
2018-10-16T02:02:16.299Z,1002.53
2018-10-16T02:03:16.339Z,1002.51
2018-10-16T02:04:16.328Z,1002.48
2018-10-16T02:05:16.349Z,1002.50
2018-10-16T02:06:16.362Z,1002.51
2018-10-16T02:07:16.398Z,1002.52
2018-10-16T02:08:16.394Z,1002.52
2018-10-16T02:09:16.446Z,1002.54
2018-10-16T02:10:16.435Z,1002.54
2018-10-16T02:11:16.447Z,1002.54
2018-10-16T02:12:16.464Z,1002.51
2018-10-16T02:13:16.479Z,1002.51
2018-10-16T02:14:16.502Z,1002.54
2018-10-16T02:15:16.533Z,1002.54
2018-10-16T02:16:16.561Z,1002.59
2018-10-16T02:17:16.576Z,1002.55
2018-10-16T02:18:16.565Z,1002.60
2018-10-16T02:19:16.592Z,1002.58
2018-10-16T02:20:16.620Z,1002.61
2018-10-16T02:21:16.622Z,1002.60
2018-10-16T02:22:16.642Z,1002.59
2018-10-16T02:23:16.645Z,1002.62
2018-10-16T02:24:16.714Z,1002.61
2018-10-16T02:25:16.692Z,1002.64
2018-10-16T02:26:16.699Z,1002.67
2018-10-16T02:27:16.720Z,1002.66
2018-10-16T02:28:16.729Z,1002.70
2018-10-16T02:29:16.755Z,1002.70
2018-10-16T02:30:16.776Z,1002.74
2018-10-16T02:31:16.780Z,1002.74
2018-10-16T02:32:16.791Z,1002.75
2018-10-16T02:33:16.809Z,1002.75
2018-10-16T02:34:16.854Z,1002.76
2018-10-16T02:35:16.853Z,1002.81
2018-10-16T02:36:16.874Z,1002.77
2018-10-16T02:37:16.891Z,1002.79
2018-10-16T02:38:16.900Z,1002.81
2018-10-16T02:39:16.911Z,1002.81
2018-10-16T02:40:16.951Z,1002.84
2018-10-16T02:41:16.965Z,1002.83
2018-10-16T02:42:16.970Z,1002.82
2018-10-16T02:43:16.983Z,1002.81
2018-10-16T02:44:17.000Z,1002.77
2018-10-16T02:45:17.009Z,1002.81
2018-10-16T02:46:17.030Z,1002.82
2018-10-16T02:47:17.055Z,1002.81
2018-10-16T02:48:17.061Z,1002.85
2018-10-16T02:49:17.073Z,1002.84
2018-10-16T02:50:17.105Z,1002.85
2018-10-16T02:51:17.111Z,1002.86
2018-10-16T02:52:17.126Z,1002.83
2018-10-16T02:53:17.154Z,1002.81
2018-10-16T02:54:17.162Z,1002.80
2018-10-16T02:55:17.180Z,1002.81
2018-10-16T02:56:17.212Z,1002.80
2018-10-16T02:57:17.211Z,1002.83
2018-10-16T02:58:17.235Z,1002.79
2018-10-16T02:59:17.248Z,1002.80
2018-10-16T03:00:17.270Z,1002.84
2018-10-16T03:01:17.278Z,1002.85
2018-10-16T03:02:17.299Z,1002.86
2018-10-16T03:03:17.310Z,1002.88
2018-10-16T03:04:17.330Z,1002.84
2018-10-16T03:05:17.367Z,1002.87
2018-10-16T03:06:17.376Z,1002.89
2018-10-16T03:07:17.379Z,1002.88
2018-10-16T03:08:17.415Z,1002.88
2018-10-16T03:09:17.412Z,1002.88
2018-10-16T03:10:17.434Z,1002.92
2018-10-16T03:11:17.454Z,1002.94
2018-10-16T03:12:17.472Z,1002.91
2018-10-16T03:13:17.474Z,1002.90
2018-10-16T03:14:17.506Z,1002.92
2018-10-16T03:15:17.523Z,1002.94
2018-10-16T03:16:17.532Z,1002.90
2018-10-16T03:17:17.550Z,1002.90
2018-10-16T03:18:17.598Z,1002.85
2018-10-16T03:19:17.588Z,1002.85
2018-10-16T03:20:17.646Z,1002.82
2018-10-16T03:21:17.634Z,1002.87
2018-10-16T03:22:17.630Z,1002.85
2018-10-16T03:23:17.646Z,1002.85
2018-10-16T03:24:17.663Z,1002.82
2018-10-16T03:25:17.695Z,1002.88
2018-10-16T03:26:17.690Z,1002.89
2018-10-16T03:27:17.719Z,1002.91
2018-10-16T03:28:17.721Z,1002.87
2018-10-16T03:29:17.742Z,1002.90
2018-10-16T03:30:17.777Z,1002.91
2018-10-16T03:31:17.780Z,1002.92
2018-10-16T03:32:17.803Z,1002.88
2018-10-16T03:33:17.817Z,1002.95
2018-10-16T03:34:17.820Z,1002.92
2018-10-16T03:35:17.842Z,1002.95
2018-10-16T03:36:17.854Z,1002.93
2018-10-16T03:37:17.880Z,1002.98
2018-10-16T03:38:17.894Z,1002.96
2018-10-16T03:39:17.915Z,1002.99
2018-10-16T03:40:17.937Z,1002.94
2018-10-16T03:41:17.941Z,1002.97
2018-10-16T03:42:17.957Z,1002.97
2018-10-16T03:43:17.968Z,1002.99
2018-10-16T03:44:17.990Z,1002.93
2018-10-16T03:45:17.998Z,1002.95
2018-10-16T03:46:18.017Z,1002.93
2018-10-16T03:47:18.042Z,1002.93
2018-10-16T03:48:18.049Z,1002.99
2018-10-16T03:49:18.070Z,1002.96
2018-10-16T03:50:18.117Z,1002.97
2018-10-16T03:51:18.105Z,1002.95
2018-10-16T03:52:18.127Z,1002.98
2018-10-16T03:53:18.161Z,1002.95
2018-10-16T03:54:18.188Z,1002.96
2018-10-16T03:55:18.164Z,1002.93
2018-10-16T03:56:18.192Z,1002.94
2018-10-16T03:57:18.234Z,1002.96
2018-10-16T03:58:18.215Z,1002.96
2018-10-16T03:59:18.250Z,1002.98
2018-10-16T04:00:18.254Z,1002.96
2018-10-16T04:01:18.306Z,1002.99
2018-10-16T04:02:18.308Z,1003.01
2018-10-16T04:03:18.304Z,1003.02
2018-10-16T04:04:18.324Z,1003.03
2018-10-16T04:05:18.337Z,1002.99
2018-10-16T04:06:18.353Z,1003.00
2018-10-16T04:07:18.362Z,1003.01
2018-10-16T04:08:18.385Z,1003.00
2018-10-16T04:09:18.394Z,1003.00
2018-10-16T04:10:18.411Z,1003.00
2018-10-16T04:11:18.431Z,1003.01
2018-10-16T04:12:18.447Z,1003.03
2018-10-16T04:13:18.544Z,1003.09
2018-10-16T04:14:18.480Z,1003.05
2018-10-16T04:15:18.531Z,1003.10
2018-10-16T04:16:18.510Z,1003.09
2018-10-16T04:17:18.527Z,1003.09
2018-10-16T04:18:18.562Z,1003.11
2018-10-16T04:19:18.574Z,1003.07
2018-10-16T04:20:18.586Z,1003.11
2018-10-16T04:21:18.604Z,1003.14
2018-10-16T04:22:18.631Z,1003.13
2018-10-16T04:23:18.620Z,1003.11
2018-10-16T04:24:18.643Z,1003.11
2018-10-16T04:25:18.659Z,1003.11
2018-10-16T04:26:18.706Z,1003.13
2018-10-16T04:27:18.725Z,1003.12
2018-10-16T04:28:18.721Z,1003.13
2018-10-16T04:29:18.833Z,1003.09
2018-10-16T04:30:18.740Z,1003.10
2018-10-16T04:31:18.765Z,1003.10
2018-10-16T04:32:18.778Z,1003.09
2018-10-16T04:33:18.788Z,1003.12
2018-10-16T04:34:18.804Z,1003.13
2018-10-16T04:35:18.822Z,1003.15
2018-10-16T04:36:18.843Z,1003.18
2018-10-16T04:37:18.866Z,1003.15
2018-10-16T04:38:18.912Z,1003.20
2018-10-16T04:39:18.891Z,1003.17
2018-10-16T04:40:18.913Z,1003.20
2018-10-16T04:41:18.936Z,1003.21
2018-10-16T04:42:18.945Z,1003.21
2018-10-16T04:43:18.954Z,1003.21
2018-10-16T04:44:18.983Z,1003.24
2018-10-16T04:45:18.990Z,1003.22
2018-10-16T04:46:19.027Z,1003.21
2018-10-16T04:47:19.031Z,1003.21
2018-10-16T04:48:19.048Z,1003.22
2018-10-16T04:49:19.057Z,1003.20
2018-10-16T04:50:19.095Z,1003.19
2018-10-16T04:51:19.099Z,1003.24
2018-10-16T04:52:19.101Z,1003.23
2018-10-16T04:53:19.120Z,1003.26
2018-10-16T04:54:19.137Z,1003.27
2018-10-16T04:55:19.264Z,1003.26
2018-10-16T04:56:19.167Z,1003.26
2018-10-16T04:57:19.184Z,1003.26
2018-10-16T04:58:19.198Z,1003.29
2018-10-16T04:59:19.213Z,1003.29
2018-10-16T05:00:19.237Z,1003.31
2018-10-16T05:01:19.277Z,1003.33
2018-10-16T05:02:19.267Z,1003.32
2018-10-16T05:03:19.287Z,1003.34
2018-10-16T05:04:19.332Z,1003.35
2018-10-16T05:05:19.318Z,1003.32
2018-10-16T05:06:19.337Z,1003.35
2018-10-16T05:07:19.354Z,1003.38
2018-10-16T05:08:19.366Z,1003.41
2018-10-16T05:09:19.395Z,1003.36
2018-10-16T05:10:19.403Z,1003.34
2018-10-16T05:11:19.436Z,1003.36
2018-10-16T05:12:19.447Z,1003.39
2018-10-16T05:13:19.506Z,1003.36
2018-10-16T05:14:19.470Z,1003.39
2018-10-16T05:15:19.486Z,1003.42
2018-10-16T05:16:19.537Z,1003.36
2018-10-16T05:17:19.518Z,1003.38
2018-10-16T05:18:19.531Z,1003.42
2018-10-16T05:19:19.588Z,1003.45
2018-10-16T05:20:19.567Z,1003.41
2018-10-16T05:21:19.601Z,1003.45
2018-10-16T05:22:19.614Z,1003.41
2018-10-16T05:23:19.634Z,1003.45
2018-10-16T05:24:19.649Z,1003.44
2018-10-16T05:25:19.645Z,1003.45
2018-10-16T05:26:19.676Z,1003.42
2018-10-16T05:27:19.677Z,1003.46
2018-10-16T05:28:19.711Z,1003.47
2018-10-16T05:29:19.721Z,1003.47
2018-10-16T05:30:19.754Z,1003.49
2018-10-16T05:31:19.899Z,1003.51
2018-10-16T05:32:19.769Z,1003.49
2018-10-16T05:33:19.797Z,1003.50
2018-10-16T05:34:19.808Z,1003.53
2018-10-16T05:35:19.807Z,1003.52
2018-10-16T05:36:19.827Z,1003.59
2018-10-16T05:37:19.841Z,1003.56
2018-10-16T05:38:19.864Z,1003.56
2018-10-16T05:39:19.961Z,1003.57
2018-10-16T05:40:19.887Z,1003.57
2018-10-16T05:41:19.906Z,1003.58
2018-10-16T05:42:19.921Z,1003.60
2018-10-16T05:43:19.956Z,1003.55
2018-10-16T05:44:19.957Z,1003.60
2018-10-16T05:45:19.978Z,1003.60
2018-10-16T05:46:19.990Z,1003.62
2018-10-16T05:47:20.006Z,1003.61
2018-10-16T05:48:20.028Z,1003.62
2018-10-16T05:49:20.055Z,1003.65
2018-10-16T05:50:20.081Z,1003.66
2018-10-16T05:51:20.073Z,1003.71
2018-10-16T05:52:20.095Z,1003.69
2018-10-16T05:53:20.128Z,1003.74
2018-10-16T05:54:20.148Z,1003.74
2018-10-16T05:55:20.142Z,1003.74
2018-10-16T05:56:20.156Z,1003.78
2018-10-16T05:57:20.172Z,1003.79
2018-10-16T05:58:20.195Z,1003.78
2018-10-16T05:59:20.223Z,1003.80
2018-10-16T06:00:20.243Z,1003.81
2018-10-16T06:01:20.242Z,1003.82
2018-10-16T06:02:20.299Z,1003.83
2018-10-16T06:03:20.281Z,1003.85
2018-10-16T06:04:20.285Z,1003.84
2018-10-16T06:05:20.314Z,1003.86
2018-10-16T06:06:20.315Z,1003.83
2018-10-16T06:07:20.334Z,1003.83
2018-10-16T06:08:20.357Z,1003.83
2018-10-16T06:09:20.374Z,1003.80
2018-10-16T06:10:20.392Z,1003.87
2018-10-16T06:11:20.410Z,1003.86
2018-10-16T06:12:20.506Z,1003.88
2018-10-16T06:13:20.441Z,1003.90
2018-10-16T06:14:20.456Z,1003.88
2018-10-16T06:15:20.473Z,1003.88
2018-10-16T06:16:20.493Z,1003.91
2018-10-16T06:17:20.498Z,1003.92
2018-10-16T06:18:20.517Z,1003.96
2018-10-16T06:19:20.562Z,1004.00
2018-10-16T06:20:20.559Z,1004.02
2018-10-16T06:21:20.568Z,1004.07
2018-10-16T06:22:20.587Z,1004.05
2018-10-16T06:23:20.625Z,1004.11
2018-10-16T06:24:20.678Z,1004.15
2018-10-16T06:25:20.647Z,1004.15
2018-10-16T06:26:20.655Z,1004.19
2018-10-16T06:27:20.676Z,1004.19
2018-10-16T06:28:20.690Z,1004.26
2018-10-16T06:29:20.716Z,1004.25
2018-10-16T06:30:20.800Z,1004.29
2018-10-16T06:31:20.729Z,1004.29
2018-10-16T06:32:20.767Z,1004.30
2018-10-16T06:33:20.828Z,1004.31
2018-10-16T06:34:20.813Z,1004.33
2018-10-16T06:35:20.802Z,1004.36
2018-10-16T06:36:20.815Z,1004.30
2018-10-16T06:37:20.838Z,1004.33
2018-10-16T06:38:20.862Z,1004.40
2018-10-16T06:39:20.881Z,1004.34
2018-10-16T06:40:20.923Z,1004.34
2018-10-16T06:41:21.050Z,1004.37
2018-10-16T06:42:20.920Z,1004.35
2018-10-16T06:43:20.932Z,1004.42
2018-10-16T06:44:20.971Z,1004.39
2018-10-16T06:45:21.011Z,1004.42
2018-10-16T06:46:21.026Z,1004.49
2018-10-16T06:47:21.105Z,1004.50
2018-10-16T06:48:21.251Z,1004.49
2018-10-16T06:49:21.031Z,1004.56
2018-10-16T06:50:21.055Z,1004.58
2018-10-16T06:51:21.071Z,1004.59
2018-10-16T06:52:21.082Z,1004.63
2018-10-16T06:53:21.225Z,1004.59
2018-10-16T06:54:21.109Z,1004.62
2018-10-16T06:55:21.207Z,1004.63
2018-10-16T06:56:21.154Z,1004.64
2018-10-16T06:57:21.169Z,1004.74
2018-10-16T06:58:21.185Z,1004.89
2018-10-16T06:59:21.221Z,1004.88
2018-10-16T07:00:21.272Z,1004.93
2018-10-16T07:01:21.227Z,1004.93
2018-10-16T07:02:21.251Z,1004.87
2018-10-16T07:03:21.259Z,1004.84
2018-10-16T07:04:21.273Z,1004.88
2018-10-16T07:05:21.298Z,1005.03
2018-10-16T07:06:21.320Z,1004.97
2018-10-16T07:07:21.532Z,1005.01
2018-10-16T07:08:21.363Z,1005.09
2018-10-16T07:09:21.404Z,1004.75
2018-10-16T07:10:21.376Z,1004.80
2018-10-16T07:11:21.408Z,1004.82
2018-10-16T07:12:21.423Z,1004.71
2018-10-16T07:13:21.433Z,1004.66
2018-10-16T07:14:21.483Z,1004.62
2018-10-16T07:15:21.468Z,1004.66
2018-10-16T07:16:21.483Z,1004.76
2018-10-16T07:17:21.505Z,1005.00
2018-10-16T07:18:21.537Z,1004.97
2018-10-16T07:19:21.541Z,1004.93
2018-10-16T07:20:21.559Z,1004.95
2018-10-16T07:21:21.664Z,1005.02
2018-10-16T07:22:21.614Z,1004.87
2018-10-16T07:23:21.627Z,1004.86
2018-10-16T07:24:21.630Z,1004.81
2018-10-16T07:25:21.638Z,1005.11
2018-10-16T07:26:21.658Z,1005.01
2018-10-16T07:27:21.682Z,1005.03
2018-10-16T07:28:21.698Z,1005.04
2018-10-16T07:29:21.725Z,1005.01
2018-10-16T07:30:21.728Z,1005.02
2018-10-16T07:31:21.760Z,1005.07
2018-10-16T07:32:21.806Z,1005.02
2018-10-16T07:33:21.799Z,1005.02
2018-10-16T07:34:21.827Z,1005.00
2018-10-16T07:35:21.830Z,1004.98
2018-10-16T07:36:21.846Z,1004.98
2018-10-16T07:37:21.882Z,1005.06
2018-10-16T07:38:21.930Z,1005.03
2018-10-16T07:39:21.924Z,1004.91
2018-10-16T07:40:21.952Z,1004.94
2018-10-16T07:41:21.941Z,1005.04
2018-10-16T07:42:21.958Z,1005.07
2018-10-16T07:43:21.985Z,1005.20
2018-10-16T07:44:21.998Z,1005.22
2018-10-16T07:45:22.061Z,1005.26
2018-10-16T07:46:22.044Z,1005.32
2018-10-16T07:47:22.055Z,1005.34
2018-10-16T07:48:22.142Z,1005.40
2018-10-16T07:49:22.101Z,1005.37
2018-10-16T07:50:22.111Z,1005.39
2018-10-16T07:51:22.130Z,1005.43
2018-10-16T07:52:22.165Z,1005.48
2018-10-16T07:53:22.170Z,1005.33
2018-10-16T07:54:22.191Z,1005.43
2018-10-16T07:55:22.212Z,1005.35
2018-10-16T07:56:22.235Z,1005.30
2018-10-16T07:57:22.334Z,1005.42
2018-10-16T07:58:22.274Z,1005.52
2018-10-16T07:59:22.297Z,1005.48
2018-10-16T08:00:22.349Z,1005.51
2018-10-16T08:01:22.366Z,1005.59
2018-10-16T08:02:22.355Z,1005.62
2018-10-16T08:03:22.376Z,1005.67
2018-10-16T08:04:22.397Z,1005.71
2018-10-16T08:05:22.429Z,1005.72
2018-10-16T08:06:22.441Z,1005.72
2018-10-16T08:07:22.482Z,1005.71
2018-10-16T08:08:22.501Z,1005.56
2018-10-16T08:09:22.506Z,1005.62
2018-10-16T08:10:22.531Z,1005.57
2018-10-16T08:11:22.639Z,1005.57
2018-10-16T08:12:22.570Z,1005.61
2018-10-16T08:13:22.605Z,1005.63
2018-10-16T08:14:22.647Z,1005.68
2018-10-16T08:15:22.632Z,1005.70
2018-10-16T08:16:22.656Z,1005.69
2018-10-16T08:17:22.769Z,1005.67
2018-10-16T08:18:22.710Z,1005.67
2018-10-16T08:19:22.717Z,1005.69
2018-10-16T08:20:22.738Z,1005.71
2018-10-16T08:21:22.763Z,1005.72
2018-10-16T08:22:22.801Z,1005.69
2018-10-16T08:23:22.799Z,1005.69
2018-10-16T08:24:22.822Z,1005.67
2018-10-16T08:25:22.843Z,1005.61
2018-10-16T08:26:22.859Z,1005.60
2018-10-16T08:27:22.888Z,1005.60
2018-10-16T08:28:22.961Z,1005.59
2018-10-16T08:29:22.926Z,1005.55
2018-10-16T08:30:23.008Z,1005.51
2018-10-16T08:31:22.965Z,1005.50
2018-10-16T08:32:22.987Z,1005.49
2018-10-16T08:33:23.004Z,1005.46
2018-10-16T08:34:23.026Z,1005.48
2018-10-16T08:35:23.042Z,1005.43
2018-10-16T08:36:23.211Z,1005.46
2018-10-16T08:37:23.157Z,1005.51
2018-10-16T08:38:23.102Z,1005.51
2018-10-16T08:39:23.131Z,1005.48
2018-10-16T08:40:23.153Z,1005.43
2018-10-16T08:41:23.208Z,1005.41
2018-10-16T08:42:23.217Z,1005.38
2018-10-16T08:43:23.210Z,1005.39
2018-10-16T08:44:23.243Z,1005.41
2018-10-16T08:45:23.270Z,1005.40
2018-10-16T08:46:23.265Z,1005.45
2018-10-16T08:47:23.315Z,1005.43
2018-10-16T08:48:23.310Z,1005.37
2018-10-16T08:49:23.332Z,1005.34
2018-10-16T08:50:23.351Z,1005.33
2018-10-16T08:51:23.383Z,1005.33
2018-10-16T08:52:23.398Z,1005.32
2018-10-16T08:53:23.415Z,1005.27
2018-10-16T08:54:23.435Z,1005.28
2018-10-16T08:55:23.453Z,1005.29
2018-10-16T08:56:23.505Z,1005.26
2018-10-16T08:57:23.494Z,1005.23
2018-10-16T08:58:23.534Z,1005.25
2018-10-16T08:59:23.535Z,1005.26
2018-10-16T09:00:23.552Z,1005.28
2018-10-16T09:01:23.590Z,1005.27
2018-10-16T09:02:23.600Z,1005.27
2018-10-16T09:03:23.633Z,1005.24
2018-10-16T09:04:23.666Z,1005.23
2018-10-16T09:05:23.650Z,1005.26
2018-10-16T09:06:23.677Z,1005.27
2018-10-16T09:07:23.693Z,1005.34
2018-10-16T09:08:23.711Z,1005.34
2018-10-16T09:09:23.738Z,1005.35
2018-10-16T09:10:23.760Z,1005.35
2018-10-16T09:11:23.779Z,1005.36
2018-10-16T09:12:23.801Z,1005.37
2018-10-16T09:13:23.812Z,1005.34
2018-10-16T09:14:23.891Z,1005.32
2018-10-16T09:15:23.856Z,1005.35
2018-10-16T09:16:23.868Z,1005.31
2018-10-16T09:17:23.894Z,1005.27
2018-10-16T09:18:23.913Z,1005.27
2018-10-16T09:19:23.940Z,1005.22
2018-10-16T09:20:23.950Z,1005.26
2018-10-16T09:21:23.967Z,1005.21
2018-10-16T09:22:24.000Z,1005.18
2018-10-16T09:23:24.051Z,1005.24
2018-10-16T09:24:24.057Z,1005.24
2018-10-16T09:25:24.061Z,1005.26
2018-10-16T09:26:24.077Z,1005.29
2018-10-16T09:27:24.099Z,1005.29
2018-10-16T09:28:24.113Z,1005.31
2018-10-16T09:29:24.124Z,1005.29
2018-10-16T09:30:24.145Z,1005.28
2018-10-16T09:31:24.164Z,1005.28
2018-10-16T09:32:24.188Z,1005.29
2018-10-16T09:33:24.204Z,1005.26
2018-10-16T09:34:24.236Z,1005.27
2018-10-16T09:35:24.264Z,1005.23
2018-10-16T09:36:24.265Z,1005.24
2018-10-16T09:37:24.292Z,1005.23
2018-10-16T09:38:24.302Z,1005.25
2018-10-16T09:39:24.328Z,1005.26
2018-10-16T09:40:24.353Z,1005.28
2018-10-16T09:41:24.379Z,1005.28
2018-10-16T09:42:24.385Z,1005.30
2018-10-16T09:43:24.409Z,1005.29
2018-10-16T09:44:24.443Z,1005.25
2018-10-16T09:45:24.444Z,1005.25
2018-10-16T09:46:24.463Z,1005.27
2018-10-16T09:47:24.492Z,1005.25
2018-10-16T09:48:24.507Z,1005.26
2018-10-16T09:49:24.554Z,1005.24
2018-10-16T09:50:24.550Z,1005.28
2018-10-16T09:51:24.566Z,1005.29
2018-10-16T09:52:24.619Z,1005.29
2018-10-16T09:53:24.606Z,1005.27
2018-10-16T09:54:24.634Z,1005.26
2018-10-16T09:55:24.643Z,1005.28
2018-10-16T09:56:24.681Z,1005.26
2018-10-16T09:57:24.684Z,1005.28
2018-10-16T09:58:24.713Z,1005.29
2018-10-16T09:59:24.733Z,1005.28
2018-10-16T10:00:24.766Z,1005.26
2018-10-16T10:01:24.761Z,1005.26
2018-10-16T10:02:24.792Z,1005.26
2018-10-16T10:03:24.807Z,1005.27
2018-10-16T10:04:24.821Z,1005.26
2018-10-16T10:05:24.851Z,1005.28
2018-10-16T10:06:24.862Z,1005.27
2018-10-16T10:07:24.890Z,1005.24
2018-10-16T10:08:24.907Z,1005.25
2018-10-16T10:09:24.935Z,1005.24
2018-10-16T10:10:24.956Z,1005.28
2018-10-16T10:11:24.974Z,1005.29
2018-10-16T10:12:24.985Z,1005.31
2018-10-16T10:13:25.015Z,1005.31
2018-10-16T10:14:25.027Z,1005.31
2018-10-16T10:15:25.061Z,1005.28
2018-10-16T10:16:25.067Z,1005.28
2018-10-16T10:17:25.086Z,1005.26
2018-10-16T10:18:25.124Z,1005.24
2018-10-16T10:19:25.146Z,1005.25
2018-10-16T10:20:25.143Z,1005.23
2018-10-16T10:21:25.161Z,1005.26
2018-10-16T10:22:25.195Z,1005.26
2018-10-16T10:23:25.256Z,1005.25
2018-10-16T10:24:25.222Z,1005.26
2018-10-16T10:25:25.250Z,1005.23
2018-10-16T10:26:25.263Z,1005.20
2018-10-16T10:27:25.286Z,1005.20
2018-10-16T10:28:25.305Z,1005.21
2018-10-16T10:29:25.323Z,1005.21
2018-10-16T10:30:25.364Z,1005.22
2018-10-16T10:31:25.362Z,1005.22
2018-10-16T10:32:25.385Z,1005.21
2018-10-16T10:33:25.402Z,1005.25
2018-10-16T10:34:25.420Z,1005.23
2018-10-16T10:35:25.457Z,1005.21
2018-10-16T10:36:25.483Z,1005.26
2018-10-16T10:37:25.521Z,1005.31
2018-10-16T10:38:25.517Z,1005.29
2018-10-16T10:39:25.565Z,1005.25
2018-10-16T10:40:25.546Z,1005.27
2018-10-16T10:41:25.553Z,1005.29
2018-10-16T10:42:25.588Z,1005.27
2018-10-16T10:43:25.622Z,1005.26
2018-10-16T10:44:25.651Z,1005.26
2018-10-16T10:45:25.670Z,1005.29
2018-10-16T10:46:25.663Z,1005.29
2018-10-16T10:47:25.681Z,1005.27
2018-10-16T10:48:25.693Z,1005.30
2018-10-16T10:49:25.735Z,1005.24
2018-10-16T10:50:25.882Z,1005.25
2018-10-16T10:51:26.098Z,1005.28
2018-10-16T10:52:25.780Z,1005.26
2018-10-16T10:53:25.809Z,1005.20
2018-10-16T10:54:25.831Z,1005.20
2018-10-16T10:55:25.839Z,1005.17
2018-10-16T10:56:25.870Z,1005.18
2018-10-16T10:57:25.872Z,1005.16
2018-10-16T10:58:25.903Z,1005.14
2018-10-16T10:59:25.916Z,1005.12
2018-10-16T11:00:25.970Z,1005.10
2018-10-16T11:01:25.959Z,1005.10
2018-10-16T11:02:25.972Z,1005.09
2018-10-16T11:03:26.142Z,1005.05
2018-10-16T11:04:26.022Z,1005.04
2018-10-16T11:05:26.040Z,1005.05
2018-10-16T11:06:26.060Z,1005.04
2018-10-16T11:07:26.070Z,1005.04
2018-10-16T11:08:26.091Z,1005.10
2018-10-16T11:09:26.111Z,1005.02
2018-10-16T11:10:26.134Z,1005.02
2018-10-16T11:11:26.154Z,1005.03
2018-10-16T11:12:26.171Z,1005.03
2018-10-16T11:13:26.190Z,1005.04
2018-10-16T11:14:26.208Z,1005.04
2018-10-16T11:15:26.227Z,1005.05
2018-10-16T11:16:26.250Z,1005.04
2018-10-16T11:17:26.265Z,1005.05
2018-10-16T11:18:26.294Z,1005.03
2018-10-16T11:19:26.349Z,1005.03
2018-10-16T11:20:26.328Z,1005.05
2018-10-16T11:21:26.349Z,1005.04
2018-10-16T11:22:26.404Z,1005.04
2018-10-16T11:23:26.402Z,1005.02
2018-10-16T11:24:26.407Z,1005.00
2018-10-16T11:25:26.428Z,1005.03
2018-10-16T11:26:26.446Z,1005.01
2018-10-16T11:27:26.499Z,1004.98
2018-10-16T11:28:26.483Z,1004.98
2018-10-16T11:29:26.507Z,1004.96
2018-10-16T11:30:26.519Z,1004.98
2018-10-16T11:31:26.541Z,1004.98
2018-10-16T11:32:26.565Z,1005.00
2018-10-16T11:33:26.600Z,1005.00
2018-10-16T11:34:26.667Z,1005.04
2018-10-16T11:35:26.637Z,1005.02
2018-10-16T11:36:26.643Z,1005.00
2018-10-16T11:37:26.662Z,1005.03
2018-10-16T11:38:26.688Z,1005.03
2018-10-16T11:39:26.710Z,1005.00
2018-10-16T11:40:26.746Z,1005.00
2018-10-16T11:41:26.737Z,1005.00
2018-10-16T11:42:26.773Z,1005.04
2018-10-16T11:43:26.786Z,1005.04
2018-10-16T11:44:26.799Z,1005.01
2018-10-16T11:45:26.842Z,1005.05
2018-10-16T11:46:26.861Z,1005.06
2018-10-16T11:47:26.872Z,1005.08
2018-10-16T11:48:26.873Z,1005.12
2018-10-16T11:49:26.891Z,1005.12
2018-10-16T11:50:26.920Z,1005.18
2018-10-16T11:51:26.931Z,1005.19
2018-10-16T11:52:26.956Z,1005.21
2018-10-16T11:53:26.965Z,1005.23
2018-10-16T11:54:26.998Z,1005.24
2018-10-16T11:55:27.009Z,1005.30
2018-10-16T11:56:27.025Z,1005.29
2018-10-16T11:57:27.050Z,1005.30
2018-10-16T11:58:27.071Z,1005.29
2018-10-16T11:59:27.087Z,1005.31
2018-10-16T12:00:27.106Z,1005.26
2018-10-16T12:01:27.126Z,1005.28
2018-10-16T12:02:27.145Z,1005.22
2018-10-16T12:03:27.187Z,1005.20
2018-10-16T12:04:27.184Z,1005.19
2018-10-16T12:05:27.208Z,1005.19